Latest Weather Observations for Snowtown

IDS60801

Issued at 5:31 pm CST Wednesday 2 September 2015 (issued every 30 minutes, with the page automatically refreshed every 10 minutes)

About weather observations | Map of weather stations | Latest weather observations for SA | Other Formats
Station Details ID: 021133 Name: RAYVILLE PARK Lat: -33.77 Lon: 138.22 Height: 109.1 m
Data from the previous 72 hours. | See also: Recent months at Snowtown
Date/Time
CST
Temp
°C
App
Temp
°C
Dew
Point
Rel
Hum
%
Delta-T
°C
Wind Press
QNH
hPa
Press
MSL
hPa
Rain
since 9 am
mm
Dir
 
Spd
km/h
Gust
km/h
Spd
kts
Gust
kts
02/05:30pm 11.1 1.4 9.0 87 1.1 W 50 72 27 39 1001.0 1001.0 9.6
02/05:00pm 11.3 2.9 9.7 90 0.8 W 44 63 24 34 1000.1 1000.1 9.6
02/04:30pm 11.7 2.9 9.6 87 1.1 WNW 46 65 25 35 999.7 999.7 9.6
02/04:13pm 11.9 4.2 10.0 88 1.0 WNW 41 63 22 34 999.6 999.6 9.6
02/04:00pm 11.7 4.5 10.4 92 0.7 WNW 39 54 21 29 999.8 999.8 8.6
02/03:52pm 11.6 4.7 10.3 92 0.7 NW 37 50 20 27 999.5 999.5 7.6
02/03:30pm 11.7 4.1 10.6 93 0.6 NNW 41 65 22 35 999.9 999.9 7.2
02/03:21pm 11.3 4.4 10.4 94 0.5 NNW 37 56 20 30 1000.0 1000.0 6.8
02/03:00pm 11.3 4.0 10.2 93 0.6 NNW 39 52 21 28 1000.5 1000.5 5.4
02/02:46pm 11.3 6.0 10.0 92 0.7 NNW 28 48 15 26 1000.7 1000.7 4.6
02/02:30pm 11.2 5.1 9.9 92 0.7 NNW 32 43 17 23 1001.1 1001.1 3.6
02/02:00pm 11.4 5.1 9.7 89 0.9 NNW 33 48 18 26 1001.5 1001.5 1.0
02/01:36pm 12.3 5.9 9.3 82 1.5 NNW 33 52 18 28 1001.6 1001.6 0.0
02/01:30pm 12.6 4.8 8.3 75 2.2 NNW 39 56 21 30 1001.7 1001.7 0.0
02/01:01pm 13.5 5.9 9.0 74 2.3 NNW 39 57 21 31 1002.3 1002.3 0.0
02/01:00pm 13.3 5.1 8.4 72 2.5 NNW 41 57 22 31 1002.4 1002.4 0.0
02/12:58pm 13.4 5.5 8.0 70 2.7 NNW 39 57 21 31 1002.5 1002.5 0.0
02/12:30pm 13.1 5.3 8.2 72 2.5 NNW 39 56 21 30 1003.3 1003.2 0.0
02/12:10pm 13.0 5.9 7.9 71 2.5 NNW 35 56 19 30 1003.8 1003.7 0.0
02/12:00pm 12.3 5.6 8.0 75 2.1 NNW 33 50 18 27 1004.1 1004.0 0.0
02/11:30am 12.3 4.7 7.6 73 2.3 NNW 37 52 20 28 1004.6 1004.5 0.0
02/11:00am 11.6 3.6 7.3 75 2.1 NNW 39 59 21 32 1005.1 1005.0 0.0
02/10:33am 12.0 4.4 7.7 75 2.1 NNW 37 56 20 30 1005.1 1005.0 0.0
02/10:30am 12.3 4.9 8.4 77 1.9 NNW 37 52 20 28 1005.1 1005.0 0.0
02/10:10am 12.2 5.0 7.5 73 2.3 NNW 35 56 19 30 1005.3 1005.2 0.0
02/10:00am 12.5 4.3 8.2 75 2.1 NNW 41 52 22 28 1005.2 1005.1 0.0
02/09:30am 11.8 4.4 8.3 79 1.7 NNW 37 52 20 28 1005.5 1005.4 0.0
02/09:25am 11.7 4.9 7.8 77 1.9 NNW 33 52 18 28 1005.5 1005.4 0.0
02/09:00am 11.5 4.1 8.2 80 1.6 N 37 52 20 28 1005.5 1005.4 4.8
02/08:40am 11.3 4.7 7.8 79 1.7 NNW 32 52 17 28 1005.9 1005.9 4.8
02/08:30am 11.3 4.6 8.3 82 1.5 NNW 33 46 18 25 1006.0 1006.0 4.8
02/08:00am 11.2 5.9 8.4 83 1.4 NNW 26 35 14 19 1006.0 1006.0 4.8
02/07:30am 9.8 4.0 7.9 88 0.9 NNW 28 43 15 23 1005.9 1005.9 4.8
02/07:00am 10.0 3.9 8.1 88 0.9 NNW 30 41 16 22 1006.0 1006.0 4.8
02/06:30am 9.6 4.5 7.7 88 0.9 NNW 24 32 13 17 1006.1 1006.1 4.8
02/06:00am 9.8 4.7 7.7 87 1.0 N 24 32 13 17 1006.6 1006.6 4.8
02/05:30am 9.2 6.8 8.6 96 0.3 NNW 11 17 6 9 1006.0 1006.0 4.8
02/05:00am 9.4 5.9 8.9 97 0.2 N 17 22 9 12 1005.7 1005.6 4.8
02/04:30am 9.7 5.7 9.1 96 0.3 NNE 20 32 11 17 1006.2 1006.2 4.8
02/04:00am 9.8 6.4 9.0 95 0.4 NNE 17 20 9 11 1006.0 1006.0 4.4
02/03:30am 9.8 6.4 9.0 95 0.4 N 17 26 9 14 1007.0 1007.0 3.8
02/03:00am 9.7 5.3 9.1 96 0.3 NNE 22 28 12 15 1007.2 1007.2 3.6
02/02:30am 9.9 7.9 8.8 93 0.5 N 9 9 5 5 1007.5 1007.5 3.6
02/02:00am 10.5 8.2 9.1 91 0.7 NNW 11 17 6 9 1007.9 1007.9 3.4
02/01:30am 11.1 6.7 9.0 87 1.1 NNW 22 35 12 19 1008.1 1008.1 2.8
02/01:00am 9.8 5.7 8.6 92 0.6 NNE 20 28 11 15 1007.9 1007.9 2.8
02/12:30am 9.8 5.7 8.7 93 0.5 NNE 20 24 11 13 1008.0 1008.0 2.6
02/12:00am 9.8 6.4 9.0 95 0.4 NNE 17 20 9 11 1008.1 1008.1 2.6
 
Date/Time
CST
Temp
°C
App
Temp
°C
Dew
Point
Rel
Hum
%
Delta-T
°C
Wind Press
QNH
hPa
Press
MSL
hPa
Rain
since 9 am
mm
Dir
 
Spd
km/h
Gust
km/h
Spd
kts
Gust
kts
01/11:30pm 10.0 7.4 9.2 95 0.4 NNE 13 19 7 10 1008.2 1008.2 2.4
01/11:00pm 10.1 7.1 9.2 94 0.4 N 15 19 8 10 1008.6 1008.6 2.2
01/10:30pm 10.4 6.4 9.0 91 0.7 NNE 20 28 11 15 1008.5 1008.5 1.4
01/10:00pm 11.3 6.5 8.7 84 1.3 N 24 33 13 18 1008.3 1008.3 0.6
01/09:30pm 11.8 7.2 8.1 78 1.8 N 22 32 12 17 1008.2 1008.2 0.0
01/09:00pm 11.7 6.5 7.2 74 2.2 N 24 28 13 15 1007.8 1007.8 0.0
01/08:30pm 11.3 7.0 7.0 75 2.1 N 19 24 10 13 1007.2 1007.2 0.0
01/08:00pm 8.1 4.5 6.9 92 0.6 NE 15 17 8 9 1007.4 1007.4 0.0
01/07:30pm 8.4 4.5 6.9 90 0.7 NNE 17 19 9 10 1007.3 1007.3 0.0
01/07:00pm 8.3 5.5 6.9 91 0.7 NNE 11 15 6 8 1007.4 1007.4 0.0
01/06:30pm 10.0 6.7 8.1 88 0.9 N 15 17 8 9 1007.1 1007.1 0.0
01/06:00pm 12.2 8.2 8.3 77 1.9 NNE 19 22 10 12 1007.2 1007.2 0.0
01/05:30pm 14.0 9.5 8.4 69 2.8 NNE 22 35 12 19 1006.9 1006.9 0.0
01/05:00pm 15.0 10.0 8.0 63 3.5 NNE 24 33 13 18 1007.5 1007.5 0.0
01/04:30pm 15.3 9.0 7.3 59 4.0 NNE 30 41 16 22 1007.8 1007.8 0.0
01/04:00pm 14.5 8.7 6.3 58 4.0 NNE 26 35 14 19 1008.2 1008.2 0.0
01/03:30pm 15.2 7.8 6.7 57 4.2 NNE 35 48 19 26 1008.7 1008.7 0.0
01/03:00pm 16.3 10.7 7.0 54 4.6 NNE 26 33 14 18 1009.1 1009.1 0.0
01/02:30pm 16.5 10.3 6.1 50 5.1 N 28 35 15 19 1009.3 1009.3 0.0
01/02:00pm 17.0 10.3 5.6 47 5.5 N 30 39 16 21 1009.6 1009.6 0.0
01/01:30pm 17.0 12.5 7.1 52 5.0 N 20 28 11 15 1010.2 1010.2 0.0
01/01:00pm 16.1 10.5 7.1 55 4.5 N 26 33 14 18 1010.5 1010.5 0.0
01/12:30pm 15.9 10.2 6.6 54 4.6 N 26 32 14 17 1011.0 1011.0 0.0
01/12:00pm 16.5 11.6 8.5 59 4.1 N 24 32 13 17 1011.4 1011.4 0.0
01/11:30am 15.1 10.3 7.4 60 3.8 N 22 32 12 17 1012.0 1012.0 0.0
01/11:00am 14.9 9.6 7.0 59 3.9 N 24 33 13 18 1012.5 1012.5 0.0
01/10:30am 14.4 9.5 7.0 61 3.6 N 22 30 12 16 1012.9 1012.8 0.0
01/10:00am 13.4 9.0 7.4 67 2.9 NNE 20 26 11 14 1013.2 1013.1 0.0
01/09:30am 12.8 7.9 6.8 67 2.9 NNE 22 30 12 16 1013.4 1013.3 0.0
01/09:00am 12.8 7.0 6.2 64 3.1 N 26 32 14 17 1013.6 1013.7 0.2
01/08:30am 12.1 6.7 6.2 67 2.8 N 24 32 13 17 1013.7 1013.8 0.2
01/08:00am 10.5 6.5 6.5 76 1.9 N 17 22 9 12 1013.5 1013.6 0.2
01/07:30am 9.0 5.2 5.9 81 1.4 NNE 15 19 8 10 1013.6 1013.7 0.2
01/07:00am 8.0 4.9 5.6 85 1.1 N 11 13 6 7 1013.7 1013.8 0.2
01/06:30am 9.4 5.1 5.4 76 1.8 N 17 24 9 13 1013.5 1013.6 0.2
01/06:00am 7.9 3.6 5.4 84 1.1 N 17 20 9 11 1013.3 1013.4 0.2
01/05:30am 8.1 3.9 5.9 86 1.0 N 17 19 9 10 1013.1 1013.2 0.2
01/05:00am 7.4 3.2 5.9 90 0.7 NNE 17 19 9 10 1012.9 1013.0 0.2
01/04:30am 7.4 4.0 6.0 91 0.6 NNE 13 19 7 10 1013.0 1013.1 0.2
01/04:00am 7.1 5.0 5.7 91 0.6 NNE 6 9 3 5 1013.5 1013.6 0.2
01/03:30am 7.5 4.8 5.8 89 0.8 NNE 9 15 5 8 1013.6 1013.7 0.2
01/03:00am 6.9 2.7 5.7 92 0.5 NNE 17 19 9 10 1013.9 1014.0 0.2
01/02:30am 5.7 1.7 4.8 94 0.4 NNE 15 17 8 9 1014.4 1014.5 0.2
01/02:00am 4.6 1.5 3.6 93 0.4 NNE 9 11 5 6 1014.8 1014.9 0.2
01/01:30am 4.9 2.4 3.9 93 0.4 NNE 6 7 3 4 1015.2 1015.3 0.2
01/01:00am 4.9 1.8 3.7 92 0.5 NNE 9 13 5 7 1015.3 1015.4 0.2
01/12:30am 5.4 1.7 4.2 92 0.5 N 13 15 7 8 1015.5 1015.6 0.2
01/12:00am 6.7 2.0 5.2 90 0.7 NNE 19 20 10 11 1015.5 1015.6 0.2
 
Date/Time
CST
Temp
°C
App
Temp
°C
Dew
Point
Rel
Hum
%
Delta-T
°C
Wind Press
QNH
hPa
Press
MSL
hPa
Rain
since 9 am
mm
Dir
 
Spd
km/h
Gust
km/h
Spd
kts
Gust
kts
31/11:30pm 7.4 3.3 6.0 91 0.6 NNE 17 19 9 10 1015.9 1016.0 0.2
31/11:00pm 6.7 2.4 5.3 91 0.6 N 17 20 9 11 1016.2 1016.3 0.2
31/10:30pm 6.2 2.6 5.2 93 0.4 N 13 17 7 9 1016.5 1016.6 0.2
31/10:00pm 6.0 3.5 4.6 91 0.6 N 7 9 4 5 1016.8 1016.9 0.2
31/09:30pm 6.4 2.7 4.7 89 0.7 N 13 17 7 9 1016.9 1017.0 0.2
31/09:00pm 7.5 4.0 5.3 86 1.0 N 13 17 7 9 1017.1 1017.2 0.2
31/08:30pm 7.4 3.8 5.2 86 1.0 N 13 17 7 9 1017.1 1017.2 0.2
31/08:00pm 7.5 3.7 5.6 88 0.9 NNW 15 15 8 8 1016.9 1017.0 0.2
31/07:30pm 7.4 4.0 5.7 89 0.8 NW 13 15 7 8 1016.8 1016.9 0.2
31/07:00pm 7.8 4.4 5.9 88 0.9 NW 13 13 7 7 1016.6 1016.7 0.2
31/06:30pm 8.7 5.5 6.7 87 0.9 NW 13 15 7 8 1016.6 1016.7 0.2
31/06:00pm 10.8 8.6 8.0 83 1.4 N 9 11 5 6 1016.4 1016.5 0.2
31/05:30pm 14.7 12.6 9.9 73 2.5 N 11 13 6 7 1016.4 1016.5 0.2
31/05:00pm 17.8 15.8 8.6 55 4.8 NNW 9 9 5 5 1016.5 1016.6 0.2
31/04:30pm 18.5 15.7 7.0 47 5.8 N 11 15 6 8 1016.6 1016.7 0.2
31/04:00pm 19.0 16.1 6.5 44 6.3 NNW 11 15 6 8 1016.8 1016.9 0.2
31/03:30pm 19.2 16.2 7.6 47 5.9 NNW 13 20 7 11 1017.0 1017.1 0.2
31/03:00pm 19.1 14.9 5.9 42 6.5 NNW 17 26 9 14 1017.3 1017.4 0.2
31/02:30pm 19.2 14.9 7.0 45 6.2 NNW 19 24 10 13 1017.6 1017.7 0.2
31/02:00pm 18.8 14.2 5.6 42 6.5 NNW 19 24 10 13 1017.8 1017.9 0.2
31/01:30pm 18.8 14.5 6.9 46 6.0 NNW 19 28 10 15 1018.3 1018.4 0.2
31/01:00pm 18.6 14.6 6.8 46 5.9 N 17 24 9 13 1018.8 1018.9 0.2
31/12:30pm 18.2 14.1 6.4 46 5.9 N 17 26 9 14 1019.3 1019.4 0.0
31/12:00pm 17.8 13.5 5.4 44 6.0 NNW 17 22 9 12 1019.7 1019.8 0.0
31/11:30am 17.2 13.5 8.1 55 4.6 N 17 26 9 14 1020.2 1020.4 0.0
31/11:00am 16.5 13.3 8.5 59 4.1 NNE 15 20 8 11 1020.4 1020.6 0.0
31/10:30am 15.1 11.3 7.6 61 3.7 NNE 17 22 9 12 1020.8 1021.0 0.0
31/10:00am 13.4 8.5 6.7 64 3.2 NNE 22 28 12 15 1021.0 1021.2 0.0
31/09:30am 12.4 8.1 7.7 73 2.3 NNE 20 30 11 16 1021.2 1021.4 0.0
31/09:00am 10.6 7.1 7.3 80 1.6 N 15 19 8 10 1021.4 1021.6 0.0
31/08:30am 7.8 4.8 5.9 88 0.9 N 11 13 6 7 1021.4 1021.6 0.0
31/08:00am 5.4 2.1 4.4 93 0.4 N 11 15 6 8 1021.1 1021.3 0.0
31/07:30am 3.3 -0.7 2.6 95 0.3 N 13 13 7 7 1021.0 1021.2 0.0
31/07:00am 1.4 -2.9 0.8 96 0.2 N 13 13 7 7 1020.8 1021.0 0.0
31/06:30am 0.8 -3.6 0.2 96 0.2 N 13 15 7 8 1020.6 1020.8 0.0
31/06:00am 0.0 -4.2 -0.7 95 0.2 N 11 13 6 7 1020.7 1020.9 0.0
31/05:30am 0.9 -3.1 0.2 95 0.3 N 11 13 6 7 1020.8 1021.0 0.0
31/05:00am 0.9 -3.1 0.3 96 0.2 N 11 13 6 7 1020.7 1020.9 0.0
31/04:30am 0.8 -3.2 0.2 96 0.2 N 11 13 6 7 1020.6 1020.8 0.0
31/04:00am 1.0 -3.4 0.3 95 0.3 N 13 13 7 7 1020.6 1020.8 0.0
31/03:30am 1.9 -2.4 1.3 96 0.2 N 13 15 7 8 1020.8 1021.0 0.0
31/03:00am 1.8 -2.5 1.2 96 0.2 N 13 15 7 8 1021.0 1021.2 0.0
31/02:30am 1.0 -3.0 0.4 96 0.2 N 11 13 6 7 1021.3 1021.5 0.0
31/02:00am 1.0 -2.7 0.1 94 0.3 N 9 9 5 5 1021.5 1021.7 0.0
31/01:30am 2.7 -1.5 1.7 93 0.4 N 13 15 7 8 1021.7 1021.9 0.0
31/01:00am 2.4 -1.8 1.5 94 0.3 NNW 13 15 7 8 1022.1 1022.3 0.0
31/12:30am 2.4 -1.8 1.7 95 0.3 NNW 13 15 7 8 1022.1 1022.3 0.0
31/12:00am 2.4 -2.2 1.8 96 0.2 WNW 15 17 8 9 1022.5 1022.6 0.0
 
Date/Time
CST
Temp
°C
App
Temp
°C
Dew
Point
Rel
Hum
%
Delta-T
°C
Wind Press
QNH
hPa
Press
MSL
hPa
Rain
since 9 am
mm
Dir
 
Spd
km/h
Gust
km/h
Spd
kts
Gust
kts
30/11:30pm 2.1 -1.8 1.4 95 0.3 WNW 11 15 6 8 1022.5 1022.6 0.0
30/11:00pm 2.0 -1.5 1.4 96 0.2 WNW 9 11 5 6 1022.6 1022.7 0.0
30/10:30pm 1.9 -1.2 1.2 95 0.3 WNW 7 9 4 5 1022.5 1022.6 0.0
30/10:00pm 2.3 0.6 1.6 95 0.3 CALM 0 0 0 0 1022.6 1022.7 0.0
30/09:30pm 2.7 -0.7 2.0 95 0.3 WNW 9 9 5 5 1022.8 1022.9 0.0
30/09:00pm 2.7 -0.4 1.5 92 0.5 WNW 7 9 4 5 1023.0 1023.1 0.0
30/08:30pm 4.6 3.1 2.8 88 0.7 CALM 0 0 0 0 1023.2 1023.3 0.0
30/08:00pm 5.2 3.6 2.6 83 1.1 CALM 0 0 0 0 1023.0 1023.1 0.0
30/07:30pm 6.0 4.8 4.5 90 0.6 CALM 0 0 0 0 1022.7 1022.8 0.0
30/07:00pm 5.9 2.2 4.4 90 0.6 WNW 13 15 7 8 1022.7 1022.8 0.0
30/06:30pm 7.5 3.5 5.0 84 1.1 WNW 15 17 8 9 1022.7 1022.8 0.0
30/06:00pm 9.7 5.9 5.9 77 1.7 WNW 15 19 8 10 1022.5 1022.6 0.0

Other Formats:

Comma delimited format used in spreadsheet applications
http://www.bom.gov.au/fwo/IDS60801/IDS60801.95670.axf

JavaScript Object Notation format (JSON) in row-major order
http://www.bom.gov.au/fwo/IDS60801/IDS60801.95670.json